createdAt,value
2023-09-18T00:01:40.779Z,96088.66
2023-09-18T00:04:07.724Z,96094.72
2023-09-18T00:06:35.181Z,96090.97
2023-09-18T00:09:12.923Z,96092.16
2023-09-18T00:11:42.268Z,96095.47
2023-09-18T00:14:11.015Z,96104.19
2023-09-18T00:16:52.062Z,96127.69
2023-09-18T00:19:23.171Z,96127.75
2023-09-18T00:21:50.300Z,96126.75
2023-09-18T00:24:18.576Z,96123.22
2023-09-18T00:26:49.320Z,96127.69
2023-09-18T00:29:16.345Z,96114.34
2023-09-18T00:31:45.613Z,96103.41
2023-09-18T00:34:12.552Z,96103.03
2023-09-18T00:36:39.574Z,96092.94
2023-09-18T00:39:06.459Z,96094.59
2023-09-18T00:41:33.221Z,96079.38
2023-09-18T00:44:00.436Z,96088.47
2023-09-18T00:46:27.777Z,96089.66
2023-09-18T00:48:55.817Z,96078.75
2023-09-18T00:51:22.827Z,96081.38
2023-09-18T00:53:50.318Z,96068.84
2023-09-18T00:56:18.392Z,96051.63
2023-09-18T00:58:48.377Z,96048.72
2023-09-18T01:01:26.338Z,96037.78
2023-09-18T01:03:55.016Z,96018.91
2023-09-18T01:06:32.814Z,96018.06
2023-09-18T01:09:01.561Z,96015.16
2023-09-18T01:11:31.129Z,96012.28
2023-09-18T01:14:09.944Z,96014.97
2023-09-18T01:16:46.705Z,96005.63
2023-09-18T01:19:13.944Z,95991.28
2023-09-18T01:21:48.007Z,96002.00
2023-09-18T01:24:14.850Z,96007.38
2023-09-18T01:26:41.995Z,95996.97
2023-09-18T01:29:09.122Z,96005.38
2023-09-18T01:31:38.660Z,95994.00
2023-09-18T01:34:06.225Z,95998.50
2023-09-18T01:36:33.129Z,95998.31
2023-09-18T01:39:00.097Z,95995.50
2023-09-18T01:41:26.978Z,95989.00
2023-09-18T01:43:53.869Z,96003.00
2023-09-18T01:46:24.418Z,96012.97
2023-09-18T01:48:54.166Z,96005.88
2023-09-18T01:51:21.301Z,96002.16
2023-09-18T01:53:51.128Z,96012.22
2023-09-18T01:56:18.044Z,96004.34
2023-09-18T01:58:48.211Z,96019.06
2023-09-18T02:01:21.217Z,96017.78
2023-09-18T02:04:08.687Z,96015.69
2023-09-18T02:06:35.612Z,96016.16
2023-09-18T02:09:02.625Z,96018.31
2023-09-18T02:11:32.567Z,96017.53
2023-09-18T02:13:59.501Z,96014.84
2023-09-18T02:16:28.873Z,96018.16
2023-09-18T02:18:57.099Z,96012.56
2023-09-18T02:21:24.860Z,96007.91
2023-09-18T02:23:52.510Z,96006.00
2023-09-18T02:26:27.249Z,96016.50
2023-09-18T02:28:55.640Z,96007.22
2023-09-18T02:31:24.222Z,96028.84
2023-09-18T02:33:51.098Z,96042.31
2023-09-18T02:36:18.317Z,96039.47
2023-09-18T02:38:45.552Z,96046.81
2023-09-18T02:41:14.827Z,96057.69
2023-09-18T02:43:41.655Z,96068.75
2023-09-18T02:46:12.123Z,96093.50
2023-09-18T02:48:38.864Z,96098.69
2023-09-18T02:51:07.015Z,96102.31
2023-09-18T02:53:39.298Z,96117.44
2023-09-18T02:56:06.103Z,96118.63
2023-09-18T02:58:33.110Z,96126.31
2023-09-18T03:01:01.001Z,96131.38
2023-09-18T03:03:28.299Z,96131.84
2023-09-18T03:06:02.737Z,96146.84
2023-09-18T03:08:30.172Z,96135.34
2023-09-18T03:10:58.429Z,96153.50
2023-09-18T03:13:29.367Z,96165.38
2023-09-18T03:15:57.865Z,96178.16
2023-09-18T03:18:25.195Z,96167.66
2023-09-18T03:20:51.929Z,96162.84
2023-09-18T03:23:25.404Z,96152.41
2023-09-18T03:25:52.474Z,96146.72
2023-09-18T03:28:22.336Z,96138.28
2023-09-18T03:31:09.235Z,96138.56
2023-09-18T03:33:36.150Z,96144.44
2023-09-18T03:36:03.909Z,96141.13
2023-09-18T03:38:31.630Z,96139.84
2023-09-18T03:41:01.951Z,96150.19
2023-09-18T03:43:28.906Z,96146.09
2023-09-18T03:45:57.971Z,96139.16
2023-09-18T03:48:25.100Z,96140.38
2023-09-18T03:50:53.950Z,96131.22
2023-09-18T03:53:21.210Z,96133.47
2023-09-18T03:55:49.547Z,96144.06
2023-09-18T03:58:16.797Z,96133.75
2023-09-18T04:00:43.993Z,96134.16
2023-09-18T04:03:11.466Z,96128.06
2023-09-18T04:05:40.937Z,96123.88
2023-09-18T04:08:07.775Z,96124.94
2023-09-18T04:10:34.660Z,96124.50
2023-09-18T04:13:01.776Z,96122.91
2023-09-18T04:15:29.246Z,96129.63
2023-09-18T04:17:56.115Z,96132.03
2023-09-18T04:20:24.239Z,96120.03
2023-09-18T04:23:19.962Z,96108.31
2023-09-18T04:25:47.438Z,96104.06
2023-09-18T04:28:20.957Z,96118.22
2023-09-18T04:30:48.060Z,96130.56
2023-09-18T04:33:15.748Z,96139.06
2023-09-18T04:35:45.348Z,96142.47
2023-09-18T04:38:12.225Z,96145.03
2023-09-18T04:40:42.381Z,96150.91
2023-09-18T04:43:11.689Z,96155.00
2023-09-18T04:45:38.521Z,96152.34
2023-09-18T04:48:09.661Z,96168.88
2023-09-18T04:50:36.718Z,96162.53
2023-09-18T04:53:05.718Z,96160.06
2023-09-18T04:55:33.202Z,96167.59
2023-09-18T04:58:01.339Z,96174.50
2023-09-18T05:00:30.985Z,96175.06
2023-09-18T05:02:58.677Z,96175.94
2023-09-18T05:05:25.841Z,96174.84
2023-09-18T05:07:52.758Z,96162.47
2023-09-18T05:10:19.654Z,96170.75
2023-09-18T05:12:47.013Z,96173.03
2023-09-18T05:15:17.600Z,96168.13
2023-09-18T05:17:48.288Z,96162.34
2023-09-18T05:20:18.868Z,96162.47
2023-09-18T05:22:47.652Z,96164.91
2023-09-18T05:25:18.092Z,96159.97
2023-09-18T05:27:49.069Z,96167.31
2023-09-18T05:30:17.585Z,96172.69
2023-09-18T05:32:46.128Z,96162.25
2023-09-18T05:35:14.572Z,96154.91
2023-09-18T05:37:45.271Z,96155.72
2023-09-18T05:40:14.097Z,96141.16
2023-09-18T05:42:45.818Z,96135.44
2023-09-18T05:45:16.555Z,96133.81
2023-09-18T05:47:44.559Z,96117.28
2023-09-18T05:50:19.197Z,96138.31
2023-09-18T05:52:47.753Z,96140.03
2023-09-18T05:55:17.972Z,96150.97
2023-09-18T05:57:44.894Z,96139.59
2023-09-18T06:00:17.590Z,96148.88
2023-09-18T06:02:44.873Z,96150.97
2023-09-18T06:05:16.999Z,96159.03
2023-09-18T06:07:47.417Z,96164.44
2023-09-18T06:10:19.380Z,96168.03
2023-09-18T06:12:46.565Z,96174.97
2023-09-18T06:15:13.690Z,96175.66
2023-09-18T06:17:45.071Z,96172.38
2023-09-18T06:20:14.835Z,96169.06
2023-09-18T06:22:42.299Z,96170.63
2023-09-18T06:25:12.828Z,96189.66
2023-09-18T06:27:40.081Z,96199.84
2023-09-18T06:30:07.989Z,96207.13
2023-09-18T06:32:38.696Z,96219.31
2023-09-18T06:35:06.111Z,96220.84
2023-09-18T06:37:32.994Z,96217.84
2023-09-18T06:40:01.093Z,96223.63
2023-09-18T06:42:28.000Z,96225.47
2023-09-18T06:44:54.751Z,96236.13
2023-09-18T06:47:26.044Z,96229.69
2023-09-18T06:49:53.086Z,96238.44
2023-09-18T06:52:22.936Z,96246.19
2023-09-18T06:54:50.133Z,96253.94
2023-09-18T06:57:19.523Z,96260.81
2023-09-18T06:59:49.649Z,96258.59
2023-09-18T07:02:16.496Z,96271.38
2023-09-18T07:04:47.277Z,96269.47
2023-09-18T07:07:17.207Z,96268.63
2023-09-18T07:10:03.761Z,96263.94
2023-09-18T07:12:32.808Z,96270.03
2023-09-18T07:15:04.878Z,96266.78
2023-09-18T07:17:32.249Z,96275.72
2023-09-18T07:19:59.265Z,96265.59
2023-09-18T07:22:31.899Z,96259.31
2023-09-18T07:24:59.494Z,96277.81
2023-09-18T07:27:28.656Z,96287.91
2023-09-18T07:29:58.475Z,96286.13
2023-09-18T07:32:38.332Z,96288.50
2023-09-18T07:35:06.434Z,96278.06
2023-09-18T07:37:33.284Z,96278.25
2023-09-18T07:40:00.147Z,96279.22
2023-09-18T07:42:27.917Z,96290.94
2023-09-18T07:44:56.635Z,96282.75
2023-09-18T07:47:25.881Z,96287.63
2023-09-18T07:49:53.047Z,96301.53
2023-09-18T07:52:19.843Z,96294.97
2023-09-18T07:54:48.954Z,96287.88
2023-09-18T07:57:17.272Z,96312.66
2023-09-18T07:59:44.048Z,96317.66
2023-09-18T08:02:11.170Z,96334.69
2023-09-18T08:04:38.079Z,96321.75
2023-09-18T08:07:08.181Z,96324.31
2023-09-18T08:09:38.277Z,96339.16
2023-09-18T08:12:10.734Z,96329.78
2023-09-18T08:14:38.121Z,96347.28
2023-09-18T08:17:10.930Z,96346.09
2023-09-18T08:19:38.520Z,96334.06
2023-09-18T08:22:07.952Z,96339.91
2023-09-18T08:24:34.922Z,96331.22
2023-09-18T08:27:01.698Z,96326.66
2023-09-18T08:29:28.993Z,96337.03
2023-09-18T08:31:55.816Z,96342.28
2023-09-18T08:34:26.827Z,96352.31
2023-09-18T08:36:55.138Z,96350.88
2023-09-18T08:39:27.316Z,96351.09
2023-09-18T08:42:04.314Z,96357.53
2023-09-18T08:44:32.080Z,96351.28
2023-09-18T08:47:03.492Z,96357.00
2023-09-18T08:49:31.190Z,96363.50
2023-09-18T08:52:00.550Z,96361.75
2023-09-18T08:54:29.998Z,96366.16
2023-09-18T08:56:59.870Z,96366.16
2023-09-18T08:59:28.691Z,96364.97
2023-09-18T09:01:55.527Z,96376.06
2023-09-18T09:04:22.739Z,96390.63
2023-09-18T09:06:54.290Z,96396.13
2023-09-18T09:09:23.358Z,96398.09
2023-09-18T09:11:55.980Z,96399.81
2023-09-18T09:14:30.666Z,96399.47
2023-09-18T09:17:01.680Z,96397.28
2023-09-18T09:19:33.963Z,96409.41
2023-09-18T09:22:02.574Z,96411.88
2023-09-18T09:24:41.084Z,96424.19
2023-09-18T09:27:11.737Z,96414.50
2023-09-18T09:29:39.039Z,96416.03
2023-09-18T09:32:20.963Z,96411.50
2023-09-18T09:34:47.729Z,96409.69
2023-09-18T09:37:14.786Z,96413.66
2023-09-18T09:39:52.041Z,96415.66
2023-09-18T09:42:26.516Z,96409.59
2023-09-18T09:45:04.431Z,96413.84
2023-09-18T09:47:36.307Z,96412.03
2023-09-18T09:50:11.134Z,96413.41
2023-09-18T09:52:48.088Z,96423.78
2023-09-18T09:55:42.368Z,96424.34
2023-09-18T09:58:12.819Z,96422.16
2023-09-18T10:00:47.102Z,96418.50
2023-09-18T10:03:19.029Z,96410.22
2023-09-18T10:05:49.626Z,96424.16
2023-09-18T10:08:22.568Z,96422.53
2023-09-18T10:10:51.996Z,96425.59
2023-09-18T10:13:33.382Z,96433.31
2023-09-18T10:16:06.194Z,96419.72
2023-09-18T10:18:46.665Z,96408.31
2023-09-18T10:21:33.012Z,96406.56
2023-09-18T10:24:27.970Z,96402.88
2023-09-18T10:27:01.179Z,96409.75
2023-09-18T10:29:29.688Z,96402.22
2023-09-18T10:31:56.478Z,96404.56
2023-09-18T10:34:25.724Z,96410.09
2023-09-18T10:36:58.584Z,96406.03
2023-09-18T10:39:30.990Z,96409.16
2023-09-18T10:42:06.209Z,96407.56
2023-09-18T10:44:33.056Z,96414.19
2023-09-18T10:47:02.650Z,96409.13
2023-09-18T10:49:30.353Z,96405.81
2023-09-18T10:51:57.952Z,96409.53
2023-09-18T10:54:25.791Z,96411.56
2023-09-18T10:56:53.900Z,96408.03
2023-09-18T10:59:26.420Z,96389.97
2023-09-18T11:01:56.471Z,96378.97
2023-09-18T11:04:24.952Z,96362.50
2023-09-18T11:06:54.791Z,96344.94
2023-09-18T11:09:25.037Z,96333.53
2023-09-18T11:11:58.837Z,96323.78
2023-09-18T11:14:54.798Z,96301.53
2023-09-18T11:17:38.945Z,96321.28
2023-09-18T11:20:18.938Z,96329.13
2023-09-18T11:22:59.133Z,96320.91
2023-09-18T11:25:43.961Z,96344.72
2023-09-18T11:28:27.140Z,96333.69
2023-09-18T11:31:00.210Z,96330.44
2023-09-18T11:33:34.401Z,96319.63
2023-09-18T11:36:08.830Z,96302.50
2023-09-18T11:38:59.012Z,96292.47
2023-09-18T11:41:31.363Z,96307.75
2023-09-18T11:44:19.960Z,96292.88
2023-09-18T11:46:56.975Z,96316.16
2023-09-18T11:49:28.014Z,96329.13
2023-09-18T11:51:56.308Z,96331.53
2023-09-18T11:54:23.469Z,96318.25
2023-09-18T11:56:55.586Z,96326.06
2023-09-18T11:59:55.161Z,96312.94
2023-09-18T12:02:37.083Z,96311.81
2023-09-18T12:05:20.559Z,96314.91
2023-09-18T12:07:48.563Z,96318.91
2023-09-18T12:10:22.267Z,96306.88
2023-09-18T12:12:50.416Z,96288.94
2023-09-18T12:15:21.475Z,96278.06
2023-09-18T12:17:48.685Z,96274.75
2023-09-18T12:20:20.198Z,96273.25
2023-09-18T12:22:54.932Z,96251.84
2023-09-18T12:25:25.403Z,96252.66
2023-09-18T12:27:57.016Z,96272.91
2023-09-18T12:30:24.684Z,96273.53
2023-09-18T12:32:52.665Z,96286.16
2023-09-18T12:35:22.736Z,96291.41
2023-09-18T12:37:51.134Z,96287.44
2023-09-18T12:40:36.094Z,96296.94
2023-09-18T12:43:04.454Z,96286.38
2023-09-18T12:45:31.507Z,96280.81
2023-09-18T12:56:06.518Z,96267.91
2023-09-18T12:58:33.748Z,96279.69
2023-09-18T13:01:09.008Z,96288.22
2023-09-18T13:03:46.378Z,96278.41
2023-09-18T13:06:22.253Z,96278.00
2023-09-18T13:08:50.769Z,96273.19
2023-09-18T13:11:17.973Z,96273.19
2023-09-18T13:13:47.527Z,96269.19
2023-09-18T13:16:15.925Z,96264.34
2023-09-18T13:18:42.967Z,96265.34
2023-09-18T13:21:15.163Z,96263.03
2023-09-18T13:23:42.080Z,96263.41
2023-09-18T13:26:09.292Z,96271.25
2023-09-18T13:28:38.799Z,96264.56
2023-09-18T13:31:06.386Z,96264.88
2023-09-18T13:33:36.362Z,96255.59
2023-09-18T13:36:03.946Z,96261.81
2023-09-18T13:38:30.699Z,96254.44
2023-09-18T13:40:57.535Z,96249.63
2023-09-18T13:43:24.438Z,96251.22
2023-09-18T13:45:55.127Z,96251.75
2023-09-18T13:48:25.169Z,96242.63
2023-09-18T13:50:57.115Z,96254.34
2023-09-18T13:53:26.467Z,96255.56
2023-09-18T13:55:57.596Z,96252.34
2023-09-18T13:58:29.486Z,96246.47
2023-09-18T14:00:56.318Z,96241.81
2023-09-18T14:03:25.173Z,96244.03
2023-09-18T14:05:52.233Z,96232.47
2023-09-18T14:08:19.351Z,96234.28
2023-09-18T14:10:46.246Z,96233.09
2023-09-18T14:13:13.048Z,96243.41
2023-09-18T14:15:40.446Z,96239.16
2023-09-18T14:18:07.385Z,96246.44
2023-09-18T14:20:34.436Z,96258.78
2023-09-18T14:23:01.130Z,96246.81
2023-09-18T14:25:29.042Z,96240.44
2023-09-18T14:27:55.846Z,96238.19
2023-09-18T14:30:27.468Z,96237.25
2023-09-18T14:32:57.232Z,96238.47
2023-09-18T14:35:24.732Z,96224.63
2023-09-18T14:37:51.578Z,96220.34
2023-09-18T14:40:18.620Z,96219.91
2023-09-18T14:42:48.398Z,96216.28
2023-09-18T14:45:15.427Z,96222.84
2023-09-18T14:47:42.542Z,96217.19
2023-09-18T14:50:11.765Z,96206.22
2023-09-18T14:52:38.481Z,96209.53
2023-09-18T14:55:07.883Z,96202.81
2023-09-18T14:57:34.652Z,96187.59
2023-09-18T15:00:02.850Z,96185.34
2023-09-18T15:02:32.864Z,96197.66
2023-09-18T15:05:01.630Z,96194.91
2023-09-18T15:07:28.814Z,96196.63
2023-09-18T15:09:58.033Z,96193.91
2023-09-18T15:12:24.977Z,96196.25
2023-09-18T15:14:51.742Z,96198.59
2023-09-18T15:17:18.576Z,96193.28
2023-09-18T15:19:56.887Z,96190.44
2023-09-18T15:22:23.602Z,96181.75
2023-09-18T15:24:50.482Z,96175.03
2023-09-18T15:27:19.321Z,96176.28
2023-09-18T15:29:46.052Z,96166.78
2023-09-18T15:32:12.784Z,96162.31
2023-09-18T15:34:44.376Z,96153.00
2023-09-18T15:37:13.349Z,96140.22
2023-09-18T15:39:40.599Z,96122.59
2023-09-18T15:42:07.291Z,96121.34
2023-09-18T15:44:37.078Z,96117.72
2023-09-18T15:47:05.139Z,96119.13
2023-09-18T15:49:33.625Z,96112.66
2023-09-18T15:52:00.449Z,96114.47
2023-09-18T15:54:27.211Z,96109.59
2023-09-18T15:56:58.592Z,96100.28
2023-09-18T15:59:25.676Z,96099.47
2023-09-18T16:01:52.922Z,96095.03
2023-09-18T16:04:22.551Z,96100.69
2023-09-18T16:06:50.956Z,96089.34
2023-09-18T16:09:24.419Z,96086.09
2023-09-18T16:11:51.209Z,96078.59
2023-09-18T16:14:24.283Z,96072.94
2023-09-18T16:16:55.651Z,96075.16
2023-09-18T16:19:25.405Z,96067.06
2023-09-18T16:21:55.334Z,96073.31
2023-09-18T16:24:22.538Z,96067.88
2023-09-18T16:26:49.410Z,96076.78
2023-09-18T16:29:27.604Z,96082.25
2023-09-18T16:31:54.546Z,96088.72
2023-09-18T16:34:24.084Z,96081.25
2023-09-18T16:37:27.835Z,96084.47
2023-09-18T16:39:54.543Z,96088.91
2023-09-18T16:42:26.882Z,96079.81
2023-09-18T16:44:54.770Z,96090.53
2023-09-18T16:47:26.721Z,96089.94
2023-09-18T16:49:53.635Z,96095.56
2023-09-18T16:52:24.232Z,96075.34
2023-09-18T16:54:50.981Z,96072.66
2023-09-18T16:57:18.506Z,96074.28
2023-09-18T16:59:47.487Z,96082.22
2023-09-18T17:02:19.448Z,96081.19
2023-09-18T17:07:18.947Z,96097.53
2023-09-18T17:09:46.035Z,96112.56
2023-09-18T17:12:15.041Z,96117.97
2023-09-18T17:14:46.484Z,96111.31
2023-09-18T17:17:15.024Z,96120.34
2023-09-18T17:19:41.951Z,96124.19
2023-09-18T17:22:08.805Z,96130.47
2023-09-18T17:24:39.120Z,96142.03
2023-09-18T17:27:07.855Z,96149.03
2023-09-18T17:29:35.818Z,96146.75
2023-09-18T17:32:02.935Z,96150.81
2023-09-18T17:34:29.707Z,96153.91
2023-09-18T17:36:57.106Z,96161.06
2023-09-18T17:39:24.881Z,96162.88
2023-09-18T17:41:53.806Z,96152.00
2023-09-18T17:44:20.953Z,96167.09
2023-09-18T17:46:48.857Z,96169.25
2023-09-18T17:49:16.864Z,96172.78
2023-09-18T17:51:44.287Z,96172.13
2023-09-18T17:54:12.389Z,96181.63
2023-09-18T17:56:39.329Z,96178.81
2023-09-18T17:59:13.354Z,96178.31
2023-09-18T18:01:42.512Z,96171.13
2023-09-18T18:04:11.937Z,96173.31
2023-09-18T18:06:39.503Z,96171.81
2023-09-18T18:09:06.749Z,96172.56
2023-09-18T18:11:36.148Z,96168.31
2023-09-18T18:14:06.096Z,96174.31
2023-09-18T18:16:33.207Z,96180.66
2023-09-18T18:19:00.122Z,96183.94
2023-09-18T18:21:27.532Z,96188.25
2023-09-18T18:23:56.857Z,96189.81
2023-09-18T18:26:30.572Z,96191.88
2023-09-18T18:29:03.464Z,96199.22
2023-09-18T18:31:33.797Z,96201.06
2023-09-18T18:34:01.656Z,96194.31
2023-09-18T18:36:29.072Z,96200.13
2023-09-18T18:38:59.395Z,96217.25
2023-09-18T18:41:30.092Z,96223.03
2023-09-18T18:44:00.706Z,96231.28
2023-09-18T18:46:29.724Z,96222.59
2023-09-18T18:48:56.567Z,96237.72
2023-09-18T18:51:25.584Z,96239.50
2023-09-18T18:53:53.138Z,96238.56
2023-09-18T18:56:22.453Z,96240.50
2023-09-18T18:58:50.754Z,96244.66
2023-09-18T19:01:28.277Z,96242.06
2023-09-18T19:03:59.170Z,96248.94
2023-09-18T19:06:33.513Z,96247.94
2023-09-18T19:09:02.613Z,96243.59
2023-09-18T19:11:29.419Z,96240.16
2023-09-18T19:13:56.351Z,96246.03
2023-09-18T19:16:23.240Z,96230.31
2023-09-18T19:18:50.132Z,96247.13
2023-09-18T19:21:19.792Z,96231.00
2023-09-18T19:23:47.897Z,96227.56
2023-09-18T19:26:17.007Z,96236.78
2023-09-18T19:28:43.992Z,96232.06
2023-09-18T19:31:11.386Z,96235.72
2023-09-18T19:33:43.929Z,96235.53
2023-09-18T19:36:11.073Z,96246.72
2023-09-18T19:38:40.448Z,96243.88
2023-09-18T19:41:07.511Z,96246.94
2023-09-18T19:43:34.331Z,96241.59
2023-09-18T19:46:01.868Z,96258.41
2023-09-18T19:48:29.844Z,96262.94
2023-09-18T19:51:01.066Z,96271.44
2023-09-18T19:53:29.276Z,96265.25
2023-09-18T19:55:56.635Z,96272.34
2023-09-18T19:58:23.435Z,96266.09
2023-09-18T20:00:50.326Z,96286.06
2023-09-18T20:03:24.451Z,96289.50
2023-09-18T20:05:51.214Z,96293.94
2023-09-18T20:08:18.093Z,96290.25
2023-09-18T20:10:44.910Z,96307.25
2023-09-18T20:13:14.187Z,96308.59
2023-09-18T20:15:41.011Z,96310.50
2023-09-18T20:18:07.831Z,96313.84
2023-09-18T20:20:35.449Z,96313.78
2023-09-18T20:23:02.637Z,96308.25
2023-09-18T20:25:30.000Z,96316.81
2023-09-18T20:27:59.789Z,96316.41
2023-09-18T20:30:26.609Z,96328.63
2023-09-18T20:33:15.879Z,96330.59
2023-09-18T20:35:44.705Z,96322.63
2023-09-18T20:40:45.045Z,96328.63
2023-09-18T20:43:14.711Z,96327.16
2023-09-18T20:45:41.710Z,96333.88
2023-09-18T20:48:11.449Z,96332.31
2023-09-18T20:50:38.228Z,96335.13
2023-09-18T20:53:08.635Z,96340.38
2023-09-18T20:55:37.995Z,96332.16
2023-09-18T20:58:04.842Z,96321.44
2023-09-18T21:00:31.688Z,96307.81
2023-09-18T21:02:58.579Z,96309.00
2023-09-18T21:05:26.598Z,96304.72
2023-09-18T21:07:53.749Z,96313.94
2023-09-18T21:10:22.614Z,96300.75
2023-09-18T21:12:49.420Z,96302.97
2023-09-18T21:15:17.449Z,96306.44
2023-09-18T21:17:49.880Z,96307.41
2023-09-18T21:20:22.173Z,96312.94
2023-09-18T21:22:51.226Z,96307.13
2023-09-18T21:25:20.506Z,96319.16
2023-09-18T21:27:47.144Z,96322.84
2023-09-18T21:30:14.687Z,96319.09
2023-09-18T21:32:41.920Z,96316.56
2023-09-18T21:35:08.896Z,96316.94
2023-09-18T21:37:36.256Z,96313.94
2023-09-18T21:40:05.871Z,96315.03
2023-09-18T21:42:32.903Z,96317.19
2023-09-18T21:44:59.677Z,96321.72
2023-09-18T21:47:26.550Z,96315.41
2023-09-18T21:49:53.637Z,96324.78
2023-09-18T21:52:26.311Z,96319.81
2023-09-18T21:54:53.697Z,96313.00
2023-09-18T21:57:22.575Z,96312.38
2023-09-18T21:59:49.402Z,96314.09
2023-09-18T22:02:18.553Z,96316.13
2023-09-18T22:04:49.325Z,96327.22
2023-09-18T22:07:19.244Z,96321.75
2023-09-18T22:09:53.473Z,96335.97
2023-09-18T22:12:20.673Z,96342.22
2023-09-18T22:14:49.609Z,96351.44
2023-09-18T22:17:16.419Z,96357.31
2023-09-18T22:19:43.940Z,96369.97
2023-09-18T22:22:15.657Z,96386.84
2023-09-18T22:24:49.490Z,96385.56
2023-09-18T22:27:17.532Z,96390.63
2023-09-18T22:29:45.049Z,96389.03
2023-09-18T22:32:12.618Z,96392.19
2023-09-18T22:34:43.772Z,96387.75
2023-09-18T22:37:12.403Z,96403.75
2023-09-18T22:40:04.016Z,96402.34
2023-09-18T22:43:08.215Z,96406.19
2023-09-18T22:46:12.709Z,96408.81
2023-09-18T22:49:17.986Z,96408.28
2023-09-18T22:52:22.042Z,96413.25
2023-09-18T22:54:58.087Z,96421.16
2023-09-18T22:57:32.285Z,96412.34
2023-09-18T22:59:59.905Z,96399.63
2023-09-18T23:02:29.056Z,96408.31
2023-09-18T23:04:57.582Z,96399.44
2023-09-18T23:07:26.858Z,96407.13
2023-09-18T23:09:54.614Z,96425.53
2023-09-18T23:12:24.102Z,96423.41
2023-09-18T23:14:52.290Z,96413.31
2023-09-18T23:17:19.467Z,96417.75
2023-09-18T23:19:46.330Z,96418.56
2023-09-18T23:22:15.595Z,96423.31
2023-09-18T23:24:42.486Z,96414.81
2023-09-18T23:27:09.413Z,96420.53
2023-09-18T23:29:36.141Z,96418.78
2023-09-18T23:32:05.688Z,96435.50
2023-09-18T23:34:33.717Z,96422.63
2023-09-18T23:37:00.606Z,96426.47
2023-09-18T23:39:32.217Z,96427.81
2023-09-18T23:42:01.258Z,96432.41
2023-09-18T23:44:28.036Z,96426.38
2023-09-18T23:47:00.855Z,96441.94
2023-09-18T23:49:29.241Z,96434.03
2023-09-18T23:51:57.867Z,96432.13
2023-09-18T23:54:24.737Z,96440.75
2023-09-18T23:56:56.557Z,96448.06
2023-09-18T23:59:23.501Z,96452.19
